Ayer, Massachusetts
Current Conditions -  °F | °C
As of 5:11 AM on Thursday 23 Oct 2014 (Local Time) from KFIT Reporting Station
Heavy Rain Heavy Rain  
Wind Chill: 43°   Ceiling: 2800
Heat Index: 48°   Visibility: 4mi
Dew Point: 45°   Wind: 10mph
Humidity: 89%   Direction: 350°N
Pressure: 29.77"   Gusts: NA
Location:  42.56°N, 71.58°W
Report Text: KFIT 230911Z AUTO 35009KT 4SM +RA BR FEW010 OVC028 09/07 A2977 RMK AO2 P0006 T00890072
Loading
Personal Weather Stations






























Interactive Weather Map New forecast layout! Learn more

10-Day Weather Forecast

Advertisements
Track Severe Weather on mobile